Silver Lake, KS

8:54 AM CST on December 29, 2014 (GMT -0600)
McDonald Subdivision | Change Station
CLOSE
Current Station
Personal Weather Station
Location: Silver Lake, KS
Elevation: 1033 ft
Nearby Weather Stations

Elev 1033 ft 39.12 °N, 95.84 °W | Updated 4 minutes ago

Partly Cloudy
Partly Cloudy
30.7 °F
Feels Like 31 °F
N
0.0
Wind Variable Wind from ESE

Today
High -- | Low -- °F
--% Chance of Precip.
Yesterday
High -- | Low -- °F
Precip. -- in
7:42 AM 5:09 PM
First Quarter, 59% visible
Pressure 30.31 in
Visibility 10.0 miles
Clouds Clear
Windchill 31 °F
Dew Point 25 °F
Humidity 79%
Rainfall 0.00 in
Snow Depth Not available.
UV 0 out of 12
Pollen .10 out of 12
Air Quality Not available.
Flu Activity Not available.
METAR KTOP 291353Z 00000KT 10SM CLR M06/M07 A3028 RMK AO2 SLP263 T10561072

More Conditions Fewer Conditions

Pressure 30.31 in
Visibility 10.0 miles
Clouds Clear
Windchill 31 °F
Dew Point 25 °F
Humidity 79%
Rainfall 0.00 in
Snow Depth Not available.
UV 0 out of 12
Pollen .10 out of 12
Air Quality Not available.
Flu Activity Not available.
METAR KTOP 291353Z 00000KT 10SM CLR M06/M07 A3028 RMK AO2 SLP263 T10561072

More Conditions Fewer Conditions

10-Day Weather Forecast

Almanac

Astronomy

Dec. 29, 2014 Rise Set
Actual Time
Civil Twilight
Nautical Twilight
Astronomical Twilight
Moon
Length of Visible Light
Length of Day
Tomorrow will be .
, % of the Moon is Illuminated

Today's Extremes

State Highs State Lows

Community

WunderPhotos

Upload Photos

1,781,591 photos uploaded!

WunderBlogs® & News

Nearby

Air Quality

  Air Quality AQ Index Pollutant
Not available.

Snow Depth

Station Depth Elevation

Earthquake Activity

City Distance Mag. Time & Date
Minimum magnitude displayed is 2.5.

Coastal Water Temperatures

Place Temperature

Nearby Weather Stations